sensor_id;sensor_type;location;lat;lon;timestamp;pressure;altitude;pressure_sealevel;temperature;humidity
42603;BME280;28233;55.748;48.752;2024-01-16T00:00:39;98351.22;;;-7.21;100.00
42603;BME280;28233;55.748;48.752;2024-01-16T00:02:42;98353.19;;;-7.16;100.00
42603;BME280;28233;55.748;48.752;2024-01-16T00:04:45;98357.56;;;-7.10;100.00
42603;BME280;28233;55.748;48.752;2024-01-16T00:06:47;98351.78;;;-7.07;100.00
42603;BME280;28233;55.748;48.752;2024-01-16T00:08:50;98350.72;;;-7.06;100.00
42603;BME280;28233;55.748;48.752;2024-01-16T00:10:53;98345.28;;;-7.11;100.00
42603;BME280;28233;55.748;48.752;2024-01-16T00:12:55;98348.63;;;-7.04;100.00
42603;BME280;28233;55.748;48.752;2024-01-16T00:14:58;98349.78;;;-7.00;100.00
42603;BME280;28233;55.748;48.752;2024-01-16T00:17:00;98348.28;;;-6.96;100.00
42603;BME280;28233;55.748;48.752;2024-01-16T00:19:03;98356.03;;;-6.94;100.00
42603;BME280;28233;55.748;48.752;2024-01-16T00:21:06;98350.69;;;-6.94;100.00
42603;BME280;28233;55.748;48.752;2024-01-16T00:23:08;98350.47;;;-6.93;100.00
42603;BME280;28233;55.748;48.752;2024-01-16T00:25:11;98342.22;;;-6.91;100.00
42603;BME280;28233;55.748;48.752;2024-01-16T00:27:14;98351.38;;;-6.87;100.00
42603;BME280;28233;55.748;48.752;2024-01-16T00:29:16;98347.91;;;-6.88;100.00
42603;BME280;28233;55.748;48.752;2024-01-16T00:31:19;98341.25;;;-6.85;100.00
42603;BME280;28233;55.748;48.752;2024-01-16T00:33:22;98341.63;;;-6.82;100.00
42603;BME280;28233;55.748;48.752;2024-01-16T00:35:25;98339.53;;;-6.79;100.00
42603;BME280;28233;55.748;48.752;2024-01-16T00:37:28;98333.69;;;-6.76;100.00
42603;BME280;28233;55.748;48.752;2024-01-16T00:39:30;98338.56;;;-6.73;100.00
42603;BME280;28233;55.748;48.752;2024-01-16T00:41:33;98335.66;;;-6.72;100.00
42603;BME280;28233;55.748;48.752;2024-01-16T00:43:35;98326.25;;;-6.74;100.00
42603;BME280;28233;55.748;48.752;2024-01-16T00:45:38;98331.34;;;-6.73;100.00
42603;BME280;28233;55.748;48.752;2024-01-16T00:47:43;98328.66;;;-6.73;100.00
42603;BME280;28233;55.748;48.752;2024-01-16T00:49:45;98326.56;;;-6.71;100.00
42603;BME280;28233;55.748;48.752;2024-01-16T00:51:48;98334.59;;;-6.71;100.00
42603;BME280;28233;55.748;48.752;2024-01-16T00:53:51;98334.94;;;-6.67;100.00
42603;BME280;28233;55.748;48.752;2024-01-16T00:55:53;98323.44;;;-6.68;100.00
42603;BME280;28233;55.748;48.752;2024-01-16T00:57:59;98325.63;;;-6.65;100.00
42603;BME280;28233;55.748;48.752;2024-01-16T01:00:01;98315.50;;;-6.63;100.00
42603;BME280;28233;55.748;48.752;2024-01-16T01:02:06;98320.59;;;-6.61;100.00
42603;BME280;28233;55.748;48.752;2024-01-16T01:04:09;98316.56;;;-6.64;100.00
42603;BME280;28233;55.748;48.752;2024-01-16T01:06:11;98323.84;;;-6.59;100.00
42603;BME280;28233;55.748;48.752;2024-01-16T01:08:14;98312.28;;;-6.65;100.00
42603;BME280;28233;55.748;48.752;2024-01-16T01:10:17;98322.81;;;-6.58;100.00
42603;BME280;28233;55.748;48.752;2024-01-16T01:12:20;98311.63;;;-6.55;100.00
42603;BME280;28233;55.748;48.752;2024-01-16T01:14:22;98318.59;;;-6.54;100.00
42603;BME280;28233;55.748;48.752;2024-01-16T01:16:25;98315.47;;;-6.51;100.00
42603;BME280;28233;55.748;48.752;2024-01-16T01:18:28;98321.84;;;-6.52;100.00
42603;BME280;28233;55.748;48.752;2024-01-16T01:20:30;98314.41;;;-6.50;100.00
42603;BME280;28233;55.748;48.752;2024-01-16T01:22:33;98312.28;;;-6.48;100.00
42603;BME280;28233;55.748;48.752;2024-01-16T01:24:36;98294.97;;;-6.45;100.00
42603;BME280;28233;55.748;48.752;2024-01-16T01:26:38;98305.44;;;-6.44;100.00
42603;BME280;28233;55.748;48.752;2024-01-16T01:28:41;98297.97;;;-6.42;100.00
42603;BME280;28233;55.748;48.752;2024-01-16T01:30:44;98302.34;;;-6.35;100.00
42603;BME280;28233;55.748;48.752;2024-01-16T01:32:46;98298.28;;;-6.38;100.00
42603;BME280;28233;55.748;48.752;2024-01-16T01:34:49;98300.00;;;-6.32;100.00
42603;BME280;28233;55.748;48.752;2024-01-16T01:36:52;98308.34;;;-6.28;100.00
42603;BME280;28233;55.748;48.752;2024-01-16T01:38:54;98300.59;;;-6.30;100.00
42603;BME280;28233;55.748;48.752;2024-01-16T01:40:57;98304.63;;;-6.27;100.00
42603;BME280;28233;55.748;48.752;2024-01-16T01:43:25;98296.75;;;-6.34;100.00
42603;BME280;28233;55.748;48.752;2024-01-16T01:45:28;98308.91;;;-6.26;100.00
42603;BME280;28233;55.748;48.752;2024-01-16T01:47:31;98313.53;;;-6.22;100.00
42603;BME280;28233;55.748;48.752;2024-01-16T01:49:34;98318.66;;;-6.20;100.00
42603;BME280;28233;55.748;48.752;2024-01-16T01:51:37;98302.03;;;-6.22;100.00
42603;BME280;28233;55.748;48.752;2024-01-16T01:53:42;98302.03;;;-6.22;100.00
42603;BME280;28233;55.748;48.752;2024-01-16T01:55:46;98298.06;;;-6.20;100.00
42603;BME280;28233;55.748;48.752;2024-01-16T01:57:48;98295.88;;;-6.23;100.00
42603;BME280;28233;55.748;48.752;2024-01-16T01:59:51;98310.72;;;-6.15;100.00
42603;BME280;28233;55.748;48.752;2024-01-16T02:01:54;98294.66;;;-6.15;100.00
42603;BME280;28233;55.748;48.752;2024-01-16T02:03:59;98300.59;;;-6.13;100.00
42603;BME280;28233;55.748;48.752;2024-01-16T02:06:01;98297.34;;;-6.15;100.00
42603;BME280;28233;55.748;48.752;2024-01-16T02:08:05;98303.25;;;-6.13;100.00
42603;BME280;28233;55.748;48.752;2024-01-16T02:10:08;98294.44;;;-6.13;100.00
42603;BME280;28233;55.748;48.752;2024-01-16T02:12:11;98303.56;;;-6.09;100.00
42603;BME280;28233;55.748;48.752;2024-01-16T02:14:14;98300.66;;;-6.08;100.00
42603;BME280;28233;55.748;48.752;2024-01-16T02:16:21;98297.19;;;-6.08;100.00
42603;BME280;28233;55.748;48.752;2024-01-16T02:18:24;98282.09;;;-6.14;100.00
42603;BME280;28233;55.748;48.752;2024-01-16T02:20:27;98300.44;;;-6.06;100.00
42603;BME280;28233;55.748;48.752;2024-01-16T02:22:31;98311.34;;;-6.08;100.00
42603;BME280;28233;55.748;48.752;2024-01-16T02:24:34;98298.31;;;-6.04;100.00
42603;BME280;28233;55.748;48.752;2024-01-16T02:26:37;98306.88;;;-6.02;100.00
42603;BME280;28233;55.748;48.752;2024-01-16T02:28:40;98301.53;;;-6.02;100.00
42603;BME280;28233;55.748;48.752;2024-01-16T02:30:42;98308.25;;;-6.00;100.00
42603;BME280;28233;55.748;48.752;2024-01-16T02:32:45;98289.16;;;-6.08;100.00
42603;BME280;28233;55.748;48.752;2024-01-16T02:34:48;98303.47;;;-5.98;100.00
42603;BME280;28233;55.748;48.752;2024-01-16T02:36:51;98309.41;;;-5.96;100.00
42603;BME280;28233;55.748;48.752;2024-01-16T02:38:53;98315.28;;;-5.93;100.00
42603;BME280;28233;55.748;48.752;2024-01-16T02:40:56;98305.16;;;-5.91;100.00
42603;BME280;28233;55.748;48.752;2024-01-16T02:42:59;98308.41;;;-5.89;100.00
42603;BME280;28233;55.748;48.752;2024-01-16T02:45:01;98315.34;;;-5.88;100.00
42603;BME280;28233;55.748;48.752;2024-01-16T02:47:06;98303.63;;;-5.87;100.00
42603;BME280;28233;55.748;48.752;2024-01-16T02:49:09;98298.00;;;-5.86;100.00
42603;BME280;28233;55.748;48.752;2024-01-16T02:51:12;98302.06;;;-5.83;100.00
42603;BME280;28233;55.748;48.752;2024-01-16T02:53:15;98297.53;;;-5.83;100.00
42603;BME280;28233;55.748;48.752;2024-01-16T02:55:18;98293.78;;;-5.82;100.00
42603;BME280;28233;55.748;48.752;2024-01-16T02:57:20;98293.22;;;-5.84;100.00
42603;BME280;28233;55.748;48.752;2024-01-16T02:59:23;98297.78;;;-5.84;100.00
42603;BME280;28233;55.748;48.752;2024-01-16T03:01:26;98285.13;;;-5.89;100.00
42603;BME280;28233;55.748;48.752;2024-01-16T03:03:28;98284.72;;;-5.81;100.00
42603;BME280;28233;55.748;48.752;2024-01-16T03:05:31;98294.94;;;-5.78;100.00
42603;BME280;28233;55.748;48.752;2024-01-16T03:07:34;98300.28;;;-5.78;100.00
42603;BME280;28233;55.748;48.752;2024-01-16T03:09:37;98289.34;;;-5.76;100.00
42603;BME280;28233;55.748;48.752;2024-01-16T03:11:39;98291.69;;;-5.80;100.00
42603;BME280;28233;55.748;48.752;2024-01-16T03:13:42;98298.00;;;-5.69;100.00
42603;BME280;28233;55.748;48.752;2024-01-16T03:15:45;98289.97;;;-5.69;100.00
42603;BME280;28233;55.748;48.752;2024-01-16T03:17:48;98296.38;;;-5.70;100.00
42603;BME280;28233;55.748;48.752;2024-01-16T03:19:51;98288.97;;;-5.63;100.00
42603;BME280;28233;55.748;48.752;2024-01-16T03:21:54;98299.13;;;-5.65;100.00
42603;BME280;28233;55.748;48.752;2024-01-16T03:23:57;98282.81;;;-5.63;100.00
42603;BME280;28233;55.748;48.752;2024-01-16T03:25:59;98288.19;;;-5.63;100.00
42603;BME280;28233;55.748;48.752;2024-01-16T03:28:02;98282.59;;;-5.62;100.00
42603;BME280;28233;55.748;48.752;2024-01-16T03:30:05;98283.63;;;-5.63;100.00
42603;BME280;28233;55.748;48.752;2024-01-16T03:32:09;98291.66;;;-5.63;100.00
42603;BME280;28233;55.748;48.752;2024-01-16T03:34:11;98301.56;;;-5.63;100.00
42603;BME280;28233;55.748;48.752;2024-01-16T03:36:14;98291.59;;;-5.68;100.00
42603;BME280;28233;55.748;48.752;2024-01-16T03:38:18;98310.88;;;-5.66;100.00
42603;BME280;28233;55.748;48.752;2024-01-16T03:40:20;98307.66;;;-5.68;100.00
42603;BME280;28233;55.748;48.752;2024-01-16T03:42:23;98295.06;;;-5.67;100.00
42603;BME280;28233;55.748;48.752;2024-01-16T03:44:26;98295.34;;;-5.69;100.00
42603;BME280;28233;55.748;48.752;2024-01-16T03:46:29;98297.50;;;-5.66;100.00
42603;BME280;28233;55.748;48.752;2024-01-16T03:48:31;98300.41;;;-5.67;100.00
42603;BME280;28233;55.748;48.752;2024-01-16T03:50:34;98301.00;;;-5.65;100.00
42603;BME280;28233;55.748;48.752;2024-01-16T03:52:38;98308.22;;;-5.66;100.00
42603;BME280;28233;55.748;48.752;2024-01-16T03:54:41;98304.47;;;-5.65;100.00
42603;BME280;28233;55.748;48.752;2024-01-16T03:56:43;98304.47;;;-5.65;100.00
42603;BME280;28233;55.748;48.752;2024-01-16T03:58:46;98298.06;;;-5.64;100.00
42603;BME280;28233;55.748;48.752;2024-01-16T04:00:48;98308.78;;;-5.64;100.00
42603;BME280;28233;55.748;48.752;2024-01-16T04:02:53;98307.97;;;-5.64;100.00
42603;BME280;28233;55.748;48.752;2024-01-16T04:04:55;98306.34;;;-5.65;100.00
42603;BME280;28233;55.748;48.752;2024-01-16T04:06:58;98304.97;;;-5.68;100.00
42603;BME280;28233;55.748;48.752;2024-01-16T04:09:01;98312.25;;;-5.63;100.00
42603;BME280;28233;55.748;48.752;2024-01-16T04:11:05;98308.50;;;-5.62;100.00
42603;BME280;28233;55.748;48.752;2024-01-16T04:13:07;98308.03;;;-5.59;100.00
42603;BME280;28233;55.748;48.752;2024-01-16T04:15:10;98301.06;;;-5.60;100.00
42603;BME280;28233;55.748;48.752;2024-01-16T04:17:13;98301.56;;;-5.63;100.00
42603;BME280;28233;55.748;48.752;2024-01-16T04:19:15;98292.22;;;-5.61;100.00
42603;BME280;28233;55.748;48.752;2024-01-16T04:21:18;98302.94;;;-5.61;100.00
42603;BME280;28233;55.748;48.752;2024-01-16T04:23:22;98301.63;;;-5.58;100.00
42603;BME280;28233;55.748;48.752;2024-01-16T04:25:25;98306.91;;;-5.63;100.00
42603;BME280;28233;55.748;48.752;2024-01-16T04:27:27;98294.34;;;-5.63;100.00
42603;BME280;28233;55.748;48.752;2024-01-16T04:29:30;98315.75;;;-5.63;100.00
42603;BME280;28233;55.748;48.752;2024-01-16T04:31:38;98316.00;;;-5.64;100.00
42603;BME280;28233;55.748;48.752;2024-01-16T04:33:41;98320.53;;;-5.65;100.00
42603;BME280;28233;55.748;48.752;2024-01-16T04:35:44;98323.75;;;-5.63;100.00
42603;BME280;28233;55.748;48.752;2024-01-16T04:37:47;98328.88;;;-5.61;100.00
42603;BME280;28233;55.748;48.752;2024-01-16T04:39:50;98329.69;;;-5.61;100.00
42603;BME280;28233;55.748;48.752;2024-01-16T04:41:52;98331.28;;;-5.60;100.00
42603;BME280;28233;55.748;48.752;2024-01-16T04:43:55;98324.84;;;-5.64;100.00
42603;BME280;28233;55.748;48.752;2024-01-16T04:45:58;98349.78;;;-5.58;100.00
42603;BME280;28233;55.748;48.752;2024-01-16T04:48:05;98335.09;;;-5.56;100.00
42603;BME280;28233;55.748;48.752;2024-01-16T04:50:08;98340.22;;;-5.54;100.00
42603;BME280;28233;55.748;48.752;2024-01-16T04:52:11;98333.00;;;-5.54;100.00
42603;BME280;28233;55.748;48.752;2024-01-16T04:54:13;98328.44;;;-5.53;100.00
42603;BME280;28233;55.748;48.752;2024-01-16T04:56:16;98332.19;;;-5.54;100.00
42603;BME280;28233;55.748;48.752;2024-01-16T04:58:19;98336.81;;;-5.49;100.00
42603;BME280;28233;55.748;48.752;2024-01-16T05:00:22;98340.06;;;-5.47;100.00
42603;BME280;28233;55.748;48.752;2024-01-16T05:02:25;98332.50;;;-5.50;100.00
42603;BME280;28233;55.748;48.752;2024-01-16T05:04:27;98340.84;;;-5.47;100.00
42603;BME280;28233;55.748;48.752;2024-01-16T05:06:30;98339.78;;;-5.46;100.00
42603;BME280;28233;55.748;48.752;2024-01-16T05:08:32;98330.72;;;-5.45;100.00
42603;BME280;28233;55.748;48.752;2024-01-16T05:10:35;98336.63;;;-5.43;100.00
42603;BME280;28233;55.748;48.752;2024-01-16T05:12:39;98327.53;;;-5.42;100.00
42603;BME280;28233;55.748;48.752;2024-01-16T05:14:41;98334.53;;;-5.41;100.00
42603;BME280;28233;55.748;48.752;2024-01-16T05:16:44;98333.97;;;-5.43;100.00
42603;BME280;28233;55.748;48.752;2024-01-16T05:18:47;98341.16;;;-5.43;100.00
42603;BME280;28233;55.748;48.752;2024-01-16T05:20:49;98330.16;;;-5.47;100.00
42603;BME280;28233;55.748;48.752;2024-01-16T05:22:52;98338.00;;;-5.40;100.00
42603;BME280;28233;55.748;48.752;2024-01-16T05:24:55;98331.59;;;-5.39;100.00
42603;BME280;28233;55.748;48.752;2024-01-16T05:26:58;98333.69;;;-5.41;100.00
42603;BME280;28233;55.748;48.752;2024-01-16T05:29:00;98327.94;;;-5.33;100.00
42603;BME280;28233;55.748;48.752;2024-01-16T05:31:03;98327.38;;;-5.35;100.00
42603;BME280;28233;55.748;48.752;2024-01-16T05:33:06;98328.97;;;-5.34;100.00
42603;BME280;28233;55.748;48.752;2024-01-16T05:35:09;98338.63;;;-5.33;100.00
42603;BME280;28233;55.748;48.752;2024-01-16T05:37:12;98318.03;;;-5.33;100.00
42603;BME280;28233;55.748;48.752;2024-01-16T05:39:16;98318.59;;;-5.31;100.00
42603;BME280;28233;55.748;48.752;2024-01-16T05:41:19;98327.19;;;-5.28;100.00
42603;BME280;28233;55.748;48.752;2024-01-16T05:43:22;98323.44;;;-5.27;100.00
42603;BME280;28233;55.748;48.752;2024-01-16T05:45:25;98343.56;;;-5.25;100.00
42603;BME280;28233;55.748;48.752;2024-01-16T05:47:27;98333.09;;;-5.26;100.00
42603;BME280;28233;55.748;48.752;2024-01-16T05:49:30;98349.97;;;-5.26;100.00
42603;BME280;28233;55.748;48.752;2024-01-16T05:51:33;98333.59;;;-5.29;100.00
42603;BME280;28233;55.748;48.752;2024-01-16T05:53:36;98355.56;;;-5.27;100.00
42603;BME280;28233;55.748;48.752;2024-01-16T05:55:39;98340.00;;;-5.31;100.00
42603;BME280;28233;55.748;48.752;2024-01-16T05:57:42;98356.38;;;-5.27;100.00
42603;BME280;28233;55.748;48.752;2024-01-16T05:59:45;98340.06;;;-5.25;100.00
42603;BME280;28233;55.748;48.752;2024-01-16T06:01:48;98344.13;;;-5.23;100.00
42603;BME280;28233;55.748;48.752;2024-01-16T06:03:51;98346.78;;;-5.23;100.00
42603;BME280;28233;55.748;48.752;2024-01-16T06:05:54;98362.56;;;-5.26;100.00
42603;BME280;28233;55.748;48.752;2024-01-16T06:07:57;98337.63;;;-5.27;100.00
42603;BME280;28233;55.748;48.752;2024-01-16T06:09:59;98344.91;;;-5.22;100.00
42603;BME280;28233;55.748;48.752;2024-01-16T06:12:03;98347.13;;;-5.19;100.00
42603;BME280;28233;55.748;48.752;2024-01-16T06:14:07;98332.09;;;-5.20;100.00
42603;BME280;28233;55.748;48.752;2024-01-16T06:16:10;98354.16;;;-5.13;100.00
42603;BME280;28233;55.748;48.752;2024-01-16T06:18:12;98345.38;;;-5.08;100.00
42603;BME280;28233;55.748;48.752;2024-01-16T06:20:15;98333.09;;;-5.04;100.00
42603;BME280;28233;55.748;48.752;2024-01-16T06:22:18;98352.44;;;-5.02;100.00
42603;BME280;28233;55.748;48.752;2024-01-16T06:24:20;98358.91;;;-4.98;100.00
42603;BME280;28233;55.748;48.752;2024-01-16T06:26:23;98353.03;;;-4.95;100.00
42603;BME280;28233;55.748;48.752;2024-01-16T06:28:26;98350.94;;;-4.93;100.00
42603;BME280;28233;55.748;48.752;2024-01-16T06:30:28;98354.47;;;-4.88;100.00
42603;BME280;28233;55.748;48.752;2024-01-16T06:32:31;98357.41;;;-4.89;100.00
42603;BME280;28233;55.748;48.752;2024-01-16T06:34:34;98362.00;;;-4.84;100.00
42603;BME280;28233;55.748;48.752;2024-01-16T06:36:37;98374.91;;;-4.81;100.00
42603;BME280;28233;55.748;48.752;2024-01-16T06:38:39;98368.81;;;-4.77;100.00
42603;BME280;28233;55.748;48.752;2024-01-16T06:40:43;98370.47;;;-4.71;100.00
42603;BME280;28233;55.748;48.752;2024-01-16T06:42:45;98348.56;;;-4.68;100.00
42603;BME280;28233;55.748;48.752;2024-01-16T06:44:48;98352.59;;;-4.65;100.00
42603;BME280;28233;55.748;48.752;2024-01-16T06:46:51;98357.50;;;-4.57;100.00
42603;BME280;28233;55.748;48.752;2024-01-16T06:48:53;98343.34;;;-4.52;100.00
42603;BME280;28233;55.748;48.752;2024-01-16T06:50:56;98350.91;;;-4.49;100.00
42603;BME280;28233;55.748;48.752;2024-01-16T06:52:59;98346.06;;;-4.47;100.00
42603;BME280;28233;55.748;48.752;2024-01-16T06:55:01;98357.34;;;-4.45;100.00
42603;BME280;28233;55.748;48.752;2024-01-16T06:57:05;98356.88;;;-4.42;100.00
42603;BME280;28233;55.748;48.752;2024-01-16T06:59:07;98356.34;;;-4.39;100.00
42603;BME280;28233;55.748;48.752;2024-01-16T07:01:13;98364.97;;;-4.37;100.00
42603;BME280;28233;55.748;48.752;2024-01-16T07:03:16;98364.41;;;-4.39;100.00
42603;BME280;28233;55.748;48.752;2024-01-16T07:05:20;98375.16;;;-4.34;100.00
42603;BME280;28233;55.748;48.752;2024-01-16T07:07:23;98373.59;;;-4.30;100.00
42603;BME280;28233;55.748;48.752;2024-01-16T07:09:27;98368.53;;;-4.26;100.00
42603;BME280;28233;55.748;48.752;2024-01-16T07:11:29;98367.72;;;-4.27;100.00
42603;BME280;28233;55.748;48.752;2024-01-16T07:13:33;98368.34;;;-4.19;100.00
42603;BME280;28233;55.748;48.752;2024-01-16T07:15:36;98372.94;;;-4.15;100.00
42603;BME280;28233;55.748;48.752;2024-01-16T07:17:39;98362.53;;;-4.11;100.00
42603;BME280;28233;55.748;48.752;2024-01-16T07:19:42;98367.06;;;-4.12;100.00
42603;BME280;28233;55.748;48.752;2024-01-16T07:21:45;98356.13;;;-4.05;100.00
42603;BME280;28233;55.748;48.752;2024-01-16T07:23:48;98351.88;;;-4.01;100.00
42603;BME280;28233;55.748;48.752;2024-01-16T07:25:51;98353.75;;;-4.01;100.00
42603;BME280;28233;55.748;48.752;2024-01-16T07:27:53;98359.97;;;-3.96;100.00
42603;BME280;28233;55.748;48.752;2024-01-16T07:29:56;98371.25;;;-3.94;100.00
42603;BME280;28233;55.748;48.752;2024-01-16T07:31:59;98360.56;;;-3.89;100.00
42603;BME280;28233;55.748;48.752;2024-01-16T07:34:01;98367.03;;;-3.85;100.00
42603;BME280;28233;55.748;48.752;2024-01-16T07:36:05;98360.31;;;-3.87;100.00
42603;BME280;28233;55.748;48.752;2024-01-16T07:38:07;98360.88;;;-3.85;100.00
42603;BME280;28233;55.748;48.752;2024-01-16T07:40:11;98358.75;;;-3.83;100.00
42603;BME280;28233;55.748;48.752;2024-01-16T07:42:14;98363.84;;;-3.82;100.00
42603;BME280;28233;55.748;48.752;2024-01-16T07:44:17;98362.78;;;-3.80;100.00
42603;BME280;28233;55.748;48.752;2024-01-16T07:46:20;98360.34;;;-3.82;100.00
42603;BME280;28233;55.748;48.752;2024-01-16T07:48:23;98354.97;;;-3.82;100.00
42603;BME280;28233;55.748;48.752;2024-01-16T07:50:25;98351.50;;;-3.83;100.00
42603;BME280;28233;55.748;48.752;2024-01-16T07:52:28;98353.91;;;-3.81;100.00
42603;BME280;28233;55.748;48.752;2024-01-16T07:54:31;98345.03;;;-3.82;100.00
42603;BME280;28233;55.748;48.752;2024-01-16T07:56:34;98349.59;;;-3.82;100.00
42603;BME280;28233;55.748;48.752;2024-01-16T07:58:37;98331.34;;;-3.85;100.00
42603;BME280;28233;55.748;48.752;2024-01-16T08:00:40;98355.22;;;-3.84;100.00
42603;BME280;28233;55.748;48.752;2024-01-16T08:02:43;98353.63;;;-3.85;100.00
42603;BME280;28233;55.748;48.752;2024-01-16T08:04:46;98357.38;;;-3.86;100.00
42603;BME280;28233;55.748;48.752;2024-01-16T08:06:49;98341.22;;;-3.91;100.00
42603;BME280;28233;55.748;48.752;2024-01-16T08:08:51;98345.25;;;-3.88;100.00
42603;BME280;28233;55.748;48.752;2024-01-16T08:10:54;98340.97;;;-3.89;100.00
42603;BME280;28233;55.748;48.752;2024-01-16T08:12:58;98343.66;;;-3.89;100.00
42603;BME280;28233;55.748;48.752;2024-01-16T08:15:00;98342.88;;;-3.85;100.00
42603;BME280;28233;55.748;48.752;2024-01-16T08:17:05;98331.38;;;-3.80;100.00
42603;BME280;28233;55.748;48.752;2024-01-16T08:19:09;98350.44;;;-3.76;100.00
42603;BME280;28233;55.748;48.752;2024-01-16T08:21:12;98345.94;;;-3.71;100.00
42603;BME280;28233;55.748;48.752;2024-01-16T08:23:14;98332.22;;;-3.74;100.00
42603;BME280;28233;55.748;48.752;2024-01-16T08:25:17;98333.28;;;-3.75;100.00
42603;BME280;28233;55.748;48.752;2024-01-16T08:27:19;98363.38;;;-3.73;100.00
42603;BME280;28233;55.748;48.752;2024-01-16T08:29:22;98340.53;;;-3.76;100.00
42603;BME280;28233;55.748;48.752;2024-01-16T08:31:25;98331.66;;;-3.76;100.00
42603;BME280;28233;55.748;48.752;2024-01-16T08:33:28;98340.25;;;-3.74;100.00
42603;BME280;28233;55.748;48.752;2024-01-16T08:35:44;98354.75;;;-3.75;100.00
42603;BME280;28233;55.748;48.752;2024-01-16T08:37:48;98357.47;;;-3.70;100.00
42603;BME280;28233;55.748;48.752;2024-01-16T08:39:51;98351.03;;;-3.69;100.00
42603;BME280;28233;55.748;48.752;2024-01-16T08:41:55;98349.94;;;-3.73;100.00
42603;BME280;28233;55.748;48.752;2024-01-16T08:44:00;98355.31;;;-3.73;100.00
42603;BME280;28233;55.748;48.752;2024-01-16T08:46:03;98365.25;;;-3.74;100.00
42603;BME280;28233;55.748;48.752;2024-01-16T08:48:06;98353.19;;;-3.71;100.00
42603;BME280;28233;55.748;48.752;2024-01-16T08:50:08;98365.78;;;-3.72;100.00
42603;BME280;28233;55.748;48.752;2024-01-16T08:52:11;98336.56;;;-3.68;100.00
42603;BME280;28233;55.748;48.752;2024-01-16T08:54:14;98343.84;;;-3.64;100.00
42603;BME280;28233;55.748;48.752;2024-01-16T08:56:16;98333.63;;;-3.67;100.00
42603;BME280;28233;55.748;48.752;2024-01-16T08:58:20;98340.06;;;-3.63;100.00
42603;BME280;28233;55.748;48.752;2024-01-16T09:00:23;98338.75;;;-3.60;100.00
42603;BME280;28233;55.748;48.752;2024-01-16T09:02:25;98342.25;;;-3.59;100.00
42603;BME280;28233;55.748;48.752;2024-01-16T09:04:31;98341.97;;;-3.63;100.00
42603;BME280;28233;55.748;48.752;2024-01-16T09:06:34;98330.09;;;-3.67;100.00
42603;BME280;28233;55.748;48.752;2024-01-16T09:08:36;98333.94;;;-3.58;100.00
42603;BME280;28233;55.748;48.752;2024-01-16T09:10:39;98331.00;;;-3.56;100.00
42603;BME280;28233;55.748;48.752;2024-01-16T09:12:42;98331.81;;;-3.56;100.00
42603;BME280;28233;55.748;48.752;2024-01-16T09:14:45;98327.00;;;-3.54;100.00
42603;BME280;28233;55.748;48.752;2024-01-16T09:16:48;98328.84;;;-3.59;100.00
42603;BME280;28233;55.748;48.752;2024-01-16T09:18:50;98327.78;;;-3.53;100.00
42603;BME280;28233;55.748;48.752;2024-01-16T09:20:53;98327.00;;;-3.49;100.00
42603;BME280;28233;55.748;48.752;2024-01-16T09:22:57;98303.16;;;-3.45;100.00
42603;BME280;28233;55.748;48.752;2024-01-16T09:25:00;98308.78;;;-3.47;100.00
42603;BME280;28233;55.748;48.752;2024-01-16T09:27:04;98297.50;;;-3.44;100.00
42603;BME280;28233;55.748;48.752;2024-01-16T09:29:09;98298.91;;;-3.36;100.00
42603;BME280;28233;55.748;48.752;2024-01-16T09:31:15;98291.66;;;-3.35;100.00
42603;BME280;28233;55.748;48.752;2024-01-16T09:33:17;98302.41;;;-3.35;100.00
42603;BME280;28233;55.748;48.752;2024-01-16T09:35:20;98291.91;;;-3.37;100.00
42603;BME280;28233;55.748;48.752;2024-01-16T09:37:24;98291.91;;;-3.37;100.00
42603;BME280;28233;55.748;48.752;2024-01-16T09:39:27;98297.81;;;-3.35;100.00
42603;BME280;28233;55.748;48.752;2024-01-16T09:41:29;98301.31;;;-3.34;100.00
42603;BME280;28233;55.748;48.752;2024-01-16T09:43:35;98293.25;;;-3.34;100.00
42603;BME280;28233;55.748;48.752;2024-01-16T09:45:38;98325.47;;;-3.34;100.00
42603;BME280;28233;55.748;48.752;2024-01-16T09:47:41;98315.28;;;-3.32;100.00
42603;BME280;28233;55.748;48.752;2024-01-16T09:49:46;98305.09;;;-3.30;100.00
42603;BME280;28233;55.748;48.752;2024-01-16T09:51:50;98305.91;;;-3.30;100.00
42603;BME280;28233;55.748;48.752;2024-01-16T09:53:53;98313.16;;;-3.30;100.00
42603;BME280;28233;55.748;48.752;2024-01-16T09:56:01;98312.34;;;-3.31;100.00
42603;BME280;28233;55.748;48.752;2024-01-16T09:58:05;98316.41;;;-3.28;100.00
42603;BME280;28233;55.748;48.752;2024-01-16T10:00:10;98301.06;;;-3.28;100.00
42603;BME280;28233;55.748;48.752;2024-01-16T10:02:16;98309.69;;;-3.26;100.00
42603;BME280;28233;55.748;48.752;2024-01-16T10:04:21;98287.09;;;-3.30;100.00
42603;BME280;28233;55.748;48.752;2024-01-16T10:06:24;98299.44;;;-3.34;100.00
42603;BME280;28233;55.748;48.752;2024-01-16T10:08:30;98287.31;;;-3.36;100.00
42603;BME280;28233;55.748;48.752;2024-01-16T10:10:34;98301.31;;;-3.34;100.00
42603;BME280;28233;55.748;48.752;2024-01-16T10:12:49;98305.06;;;-3.35;100.00
42603;BME280;28233;55.748;48.752;2024-01-16T10:14:53;98304.53;;;-3.37;100.00
42603;BME280;28233;55.748;48.752;2024-01-16T10:17:02;98312.84;;;-3.39;100.00
42603;BME280;28233;55.748;48.752;2024-01-16T10:19:08;98293.75;;;-3.43;100.00
42603;BME280;28233;55.748;48.752;2024-01-16T10:21:21;98298.59;;;-3.40;100.00
42603;BME280;28233;55.748;48.752;2024-01-16T10:23:29;98299.41;;;-3.39;100.00
42603;BME280;28233;55.748;48.752;2024-01-16T10:25:32;98293.75;;;-3.43;100.00
42603;BME280;28233;55.748;48.752;2024-01-16T10:27:37;98294.81;;;-3.44;100.00
42603;BME280;28233;55.748;48.752;2024-01-16T10:29:54;98316.03;;;-3.47;100.00
42603;BME280;28233;55.748;48.752;2024-01-16T10:31:58;98311.47;;;-3.47;100.00
42603;BME280;28233;55.748;48.752;2024-01-16T10:34:02;98285.13;;;-3.50;100.00
42603;BME280;28233;55.748;48.752;2024-01-16T10:36:16;98307.66;;;-3.51;100.00